Flight Track Log - Related Links

Times and Time Zones

All times are in EDT time to prevent confusion due to time zone crossing. See the N147SW flight status page for this flight to view local times or setup timezone preferences in your user account.

Time Position Orientation Groundspeed Altitude Reporting Facility
EDT Latitude Longitude Course Direction KTS MPH feet Rate Location/Type
Thu 03:20:54 PM 27.9167 -82.6833 336° Northwest 154 177 900  Level Tampa TRACON
Thu 03:21:24 PM 27.9500 -82.7000 336° Northwest 197 227 1,800 2,176 Climbing Tampa TRACON
Thu 03:22:25 PM 28.0000 -82.7667 310° West 289 333 4,200 3,174 Climbing Tampa TRACON
Thu 03:23:25 PM 28.0667 -82.8000 336° Northwest 298 343 8,200 3,450 Climbing Tampa TRACON
Thu 03:24:25 PM 28.1500 -82.8167 350° North 303 349 11,100 2,264 Climbing Tampa TRACON
Thu 03:27:50 PM 28.4775 -82.9139 345° North 375 432 18,200 1,992 Climbing Jacksonville Center
Thu 03:28:50 PM 28.5714 -82.9281 352° North 360 414 19,900 900 Climbing Jacksonville Center
Thu 03:29:50 PM 28.6800 -82.9447 352° North 360 414 20,000 50 Climbing Jacksonville Center
Thu 03:30:50 PM 28.7781 -82.9992 334° Northwest 383 441 20,000  Level Jacksonville Center
Thu 03:31:50 PM 28.8719 -83.0775 324° Northwest 388 447 20,000  Level Jacksonville Center
Thu 03:32:50 PM 28.9678 -83.1583 324° Northwest 412 474 20,000  Level Jacksonville Center
Thu 03:33:50 PM 29.0636 -83.2394 324° Northwest 424 488 20,000  Level Jacksonville Center
Thu 03:34:50 PM 29.1614 -83.3158 326° Northwest 429 494 20,000  Level Jacksonville Center
Thu 03:35:50 PM 29.2550 -83.3947 324° Northwest 429 494 20,000  Level Jacksonville Center
Thu 03:36:50 PM 29.3508 -83.4764 323° Northwest 429 494 20,000 -600 Level Jacksonville Center
Thu 03:37:50 PM 29.4464 -83.5556 324° Northwest 429 494 18,800 -1,650 Descending Jacksonville Center
Thu 03:38:50 PM 29.5358 -83.6303 324° Northwest 418 481 16,700 -2,150 Descending Jacksonville Center
Thu 03:39:50 PM 29.6250 -83.7025 325° Northwest 405 466 14,500 -2,250 Descending Jacksonville Center
Thu 03:40:50 PM 29.7144 -83.7797 323° Northwest 399 459 12,200 -1,750 Descending Jacksonville Center
Thu 03:41:50 PM 29.8014 -83.8500 325° Northwest 394 453 11,000 -600 Descending Jacksonville Center
Thu 03:42:50 PM 29.8908 -83.9250 324° Northwest 394 453 11,000 -800 Level Jacksonville Center
Thu 03:43:50 PM 29.9778 -83.9981 324° Northwest 394 453 9,400 -1,750 Descending Jacksonville Center
Thu 03:44:50 PM 30.0564 -84.0661 323° Northwest 382 440 7,500 -1,900 Descending Jacksonville Center
Thu 03:45:50 PM 30.1186 -84.1317 318° Northwest 346 398 5,600 -1,900 Descending Jacksonville Center
Thu 03:46:50 PM 30.1828 -84.1903 322° Northwest 310 357 3,700 -1,400 Descending Jacksonville Center
Thu 03:47:50 PM 30.2406 -84.2461 320° Northwest 293 337 2,800 -900 Descending Jacksonville Center

Login

Don't have an account? Register now (free) for customized features, flight alerts, and more!